createdAt,value
2023-02-19T00:00:52.216Z,69.98
2023-02-19T00:04:03.787Z,69.71
2023-02-19T00:07:06.384Z,69.95
2023-02-19T00:10:09.032Z,70.10
2023-02-19T00:13:12.076Z,69.85
2023-02-19T00:16:23.669Z,69.86
2023-02-19T00:19:26.325Z,69.49
2023-02-19T00:22:29.255Z,69.73
2023-02-19T00:25:31.923Z,68.61
2023-02-19T00:28:35.102Z,69.31
2023-02-19T00:31:38.094Z,68.82
2023-02-19T00:34:41.200Z,68.78
2023-02-19T00:37:43.845Z,69.30
2023-02-19T00:40:46.896Z,68.93
2023-02-19T00:43:57.032Z,69.42
2023-02-19T00:46:59.600Z,69.89
2023-02-19T00:50:02.406Z,69.66
2023-02-19T00:53:05.156Z,69.67
2023-02-19T00:56:08.592Z,69.79
2023-02-19T00:59:11.297Z,69.91
2023-02-19T01:02:14.388Z,69.78
2023-02-19T01:05:16.997Z,70.49
2023-02-19T01:08:19.751Z,70.70
2023-02-19T01:11:22.542Z,70.91
2023-02-19T01:14:25.092Z,70.82
2023-02-19T01:17:27.686Z,71.24
2023-02-19T01:20:30.280Z,71.51
2023-02-19T01:23:33.177Z,71.51
2023-02-19T01:26:35.842Z,72.52
2023-02-19T01:29:39.314Z,72.07
2023-02-19T01:32:42.036Z,72.00
2023-02-19T01:35:44.804Z,71.89
2023-02-19T01:38:47.772Z,71.83
2023-02-19T01:41:50.299Z,72.49
2023-02-19T01:45:26.962Z,72.41
2023-02-19T01:48:35.775Z,72.60
2023-02-19T01:51:40.186Z,71.99
2023-02-19T01:54:44.801Z,72.19
2023-02-19T01:57:49.308Z,72.61
2023-02-19T02:00:53.212Z,72.39
2023-02-19T02:03:55.941Z,73.06
2023-02-19T02:07:00.547Z,73.04
2023-02-19T02:10:23.007Z,73.15
2023-02-19T02:13:26.374Z,73.65
2023-02-19T02:16:39.226Z,73.96
2023-02-19T02:20:15.210Z,74.36
2023-02-19T02:23:35.944Z,74.47
2023-02-19T02:26:42.324Z,74.52
2023-02-19T02:30:21.636Z,74.84
2023-02-19T02:33:42.894Z,75.20
2023-02-19T02:36:47.963Z,75.38
2023-02-19T02:39:51.526Z,75.38
2023-02-19T02:42:58.368Z,75.67
2023-02-19T02:46:02.481Z,75.41
2023-02-19T02:49:17.624Z,75.31
2023-02-19T02:52:39.444Z,75.58
2023-02-19T02:55:44.655Z,74.93
2023-02-19T02:58:48.509Z,75.05
2023-02-19T03:02:12.555Z,74.93
2023-02-19T03:05:41.808Z,75.04
2023-02-19T03:08:50.723Z,74.93
2023-02-19T03:12:12.484Z,75.06
2023-02-19T03:15:36.187Z,74.76
2023-02-19T03:19:00.258Z,75.29
2023-02-19T03:22:03.167Z,75.46
2023-02-19T03:25:34.093Z,74.99
2023-02-19T03:28:57.839Z,74.76
2023-02-19T03:32:11.432Z,75.16
2023-02-19T03:35:25.890Z,75.44
2023-02-19T03:38:37.076Z,75.64
2023-02-19T03:42:01.877Z,75.81
2023-02-19T03:45:34.352Z,76.58
2023-02-19T03:48:41.767Z,76.52
2023-02-19T03:52:00.997Z,76.91
2023-02-19T03:55:11.814Z,77.70
2023-02-19T03:58:20.769Z,79.08
2023-02-19T04:01:31.649Z,80.46
2023-02-19T04:04:46.539Z,81.83
2023-02-19T04:07:52.478Z,81.67
2023-02-19T04:11:00.356Z,81.65
2023-02-19T04:14:30.890Z,81.32
2023-02-19T04:17:46.483Z,81.83
2023-02-19T04:20:49.729Z,81.45
2023-02-19T04:23:52.335Z,81.64
2023-02-19T04:26:55.569Z,81.41
2023-02-19T04:29:58.236Z,81.26
2023-02-19T04:33:00.722Z,81.51
2023-02-19T04:36:03.447Z,81.31
2023-02-19T04:39:06.089Z,80.99
2023-02-19T04:42:10.017Z,81.40
2023-02-19T04:45:12.757Z,81.15
2023-02-19T04:48:15.428Z,81.11
2023-02-19T04:51:18.247Z,81.14
2023-02-19T04:54:20.892Z,81.02
2023-02-19T04:57:23.903Z,81.51
2023-02-19T05:00:26.854Z,81.51
2023-02-19T05:03:30.221Z,81.82
2023-02-19T05:06:32.852Z,81.76
2023-02-19T05:09:35.525Z,81.53
2023-02-19T05:12:38.294Z,81.82
2023-02-19T05:15:41.079Z,82.30
2023-02-19T05:18:45.456Z,83.17
2023-02-19T05:21:48.254Z,83.23
2023-02-19T05:24:50.846Z,83.74
2023-02-19T05:28:13.817Z,84.30
2023-02-19T05:31:17.056Z,84.79
2023-02-19T05:34:19.741Z,84.33
2023-02-19T05:37:22.598Z,84.10
2023-02-19T05:40:25.387Z,84.47
2023-02-19T05:43:27.926Z,84.17
2023-02-19T05:46:31.610Z,84.25
2023-02-19T05:49:34.261Z,83.60
2023-02-19T05:52:37.035Z,83.30
2023-02-19T05:55:39.671Z,83.34
2023-02-19T05:58:42.449Z,83.34
2023-02-19T06:01:49.352Z,83.12
2023-02-19T06:04:52.272Z,83.33
2023-02-19T06:07:54.906Z,83.46
2023-02-19T06:10:58.656Z,83.12
2023-02-19T06:14:01.641Z,82.80
2023-02-19T06:17:04.260Z,82.91
2023-02-19T06:20:07.378Z,82.54
2023-02-19T06:23:09.968Z,82.73
2023-02-19T06:26:15.363Z,82.12
2023-02-19T06:29:18.188Z,82.10
2023-02-19T06:32:21.252Z,82.12
2023-02-19T06:35:24.054Z,82.09
2023-02-19T06:38:27.691Z,81.74
2023-02-19T06:41:30.667Z,82.03
2023-02-19T06:44:33.691Z,82.09
2023-02-19T06:47:36.293Z,82.57
2023-02-19T06:50:39.067Z,82.53
2023-02-19T06:53:42.222Z,82.56
2023-02-19T06:56:47.066Z,82.89
2023-02-19T06:59:50.553Z,82.74
2023-02-19T07:02:57.478Z,82.92
2023-02-19T07:06:00.466Z,82.40
2023-02-19T07:09:04.975Z,82.74
2023-02-19T07:12:08.162Z,82.37
2023-02-19T07:15:11.258Z,82.40
2023-02-19T07:18:14.499Z,82.06
2023-02-19T07:21:18.309Z,81.50
2023-02-19T07:24:22.155Z,81.11
2023-02-19T07:27:24.941Z,80.66
2023-02-19T07:30:28.695Z,81.15
2023-02-19T07:33:32.088Z,82.24
2023-02-19T07:36:35.292Z,82.35
2023-02-19T07:39:37.916Z,82.34
2023-02-19T07:42:41.216Z,82.57
2023-02-19T07:45:44.346Z,81.67
2023-02-19T07:48:47.753Z,82.09
2023-02-19T07:51:50.673Z,82.44
2023-02-19T07:54:53.503Z,82.52
2023-02-19T07:58:00.891Z,83.40
2023-02-19T08:01:16.780Z,83.05
2023-02-19T08:04:19.913Z,82.39
2023-02-19T08:07:22.755Z,83.17
2023-02-19T08:10:45.660Z,83.93
2023-02-19T08:13:50.050Z,82.84
2023-02-19T08:16:53.561Z,83.59
2023-02-19T08:19:56.255Z,83.57
2023-02-19T08:22:59.855Z,84.54
2023-02-19T08:26:03.188Z,85.21
2023-02-19T08:29:07.116Z,87.41
2023-02-19T08:32:09.938Z,87.94
2023-02-19T08:35:13.289Z,89.81
2023-02-19T08:38:19.194Z,88.63
2023-02-19T08:41:22.518Z,88.45
2023-02-19T08:44:25.268Z,88.63
2023-02-19T08:47:27.903Z,89.61
2023-02-19T08:50:31.608Z,88.45
2023-02-19T08:53:35.939Z,88.43
2023-02-19T08:56:38.632Z,87.97
2023-02-19T08:59:41.338Z,87.95
2023-02-19T09:02:44.537Z,88.40
2023-02-19T09:05:47.616Z,87.41
2023-02-19T09:08:51.008Z,85.17
2023-02-19T09:11:53.933Z,85.25
2023-02-19T09:14:56.686Z,84.75
2023-02-19T09:17:59.901Z,84.54
2023-02-19T09:21:04.979Z,84.29
2023-02-19T09:24:09.789Z,83.45
2023-02-19T09:27:17.219Z,83.05
2023-02-19T09:30:20.106Z,80.70
2023-02-19T09:33:23.286Z,80.19
2023-02-19T09:36:28.252Z,80.67
2023-02-19T09:39:31.247Z,80.77
2023-02-19T09:42:34.599Z,79.35
2023-02-19T09:45:38.795Z,79.39
2023-02-19T09:48:41.791Z,79.52
2023-02-19T09:51:48.159Z,79.07
2023-02-19T09:54:51.660Z,78.70
2023-02-19T09:57:54.865Z,78.25
2023-02-19T10:01:00.852Z,78.97
2023-02-19T10:04:04.727Z,78.71
2023-02-19T10:07:13.167Z,76.65
2023-02-19T10:10:16.005Z,75.88
2023-02-19T10:13:23.003Z,75.94
2023-02-19T10:16:27.725Z,77.25
2023-02-19T10:19:32.289Z,75.79
2023-02-19T10:22:38.582Z,76.68
2023-02-19T10:25:50.527Z,77.43
2023-02-19T10:28:55.726Z,77.00
2023-02-19T10:32:24.422Z,77.06
2023-02-19T10:35:27.887Z,79.96
2023-02-19T10:38:37.146Z,80.50
2023-02-19T10:41:44.121Z,83.21
2023-02-19T10:44:50.559Z,83.72
2023-02-19T10:47:53.997Z,84.53
2023-02-19T10:51:05.458Z,85.21
2023-02-19T10:54:21.603Z,85.67
2023-02-19T10:57:31.282Z,85.57
2023-02-19T11:00:34.656Z,84.28
2023-02-19T11:03:38.132Z,83.58
2023-02-19T11:06:41.043Z,83.81
2023-02-19T11:09:50.269Z,81.78
2023-02-19T11:12:55.758Z,81.60
2023-02-19T11:15:59.284Z,81.70
2023-02-19T11:19:02.544Z,78.61
2023-02-19T11:22:21.486Z,80.09
2023-02-19T11:25:26.131Z,78.13
2023-02-19T11:28:33.696Z,78.70
2023-02-19T11:31:37.164Z,79.57
2023-02-19T11:34:40.852Z,80.23
2023-02-19T11:38:02.827Z,80.35
2023-02-19T11:41:09.562Z,81.42
2023-02-19T11:44:35.338Z,81.88
2023-02-19T11:47:59.322Z,81.80
2023-02-19T11:51:21.886Z,81.42
2023-02-19T11:55:03.663Z,82.08
2023-02-19T11:58:46.857Z,83.54
2023-02-19T12:01:59.320Z,82.12
2023-02-19T12:05:32.218Z,82.41
2023-02-19T12:09:03.423Z,82.78
2023-02-19T12:12:47.782Z,82.95
2023-02-19T12:16:01.130Z,83.12
2023-02-19T12:19:14.139Z,82.74
2023-02-19T12:22:38.613Z,82.84
2023-02-19T12:26:15.894Z,82.94
2023-02-19T12:29:56.790Z,83.45
2023-02-19T12:33:00.118Z,83.38
2023-02-19T12:36:10.401Z,82.04
2023-02-19T12:39:13.963Z,82.88
2023-02-19T12:42:44.262Z,83.11
2023-02-19T12:45:59.474Z,83.09
2023-02-19T12:49:08.966Z,84.89
2023-02-19T12:52:18.916Z,85.43
2023-02-19T12:55:32.540Z,86.42
2023-02-19T12:58:57.368Z,89.18
2023-02-19T13:02:07.439Z,90.68
2023-02-19T13:05:24.225Z,92.45
2023-02-19T13:08:34.202Z,91.86
2023-02-19T13:11:45.048Z,93.39
2023-02-19T13:15:19.147Z,96.33
2023-02-19T13:18:46.142Z,96.31
2023-02-19T13:22:15.893Z,96.15
2023-02-19T13:25:20.133Z,97.26
2023-02-19T13:28:46.902Z,96.82
2023-02-19T13:32:25.047Z,96.69
2023-02-19T13:35:56.560Z,98.11
2023-02-19T13:39:00.710Z,98.53
2023-02-19T13:42:04.882Z,98.80
2023-02-19T13:45:20.549Z,99.35
2023-02-19T13:48:44.860Z,99.13
2023-02-19T13:52:04.682Z,100.00
2023-02-19T13:55:26.270Z,100.00
2023-02-19T13:58:35.502Z,99.72
2023-02-19T14:01:51.999Z,99.62
2023-02-19T14:05:01.174Z,99.52
2023-02-19T14:08:04.398Z,98.94
2023-02-19T14:11:10.745Z,99.43
2023-02-19T14:14:36.602Z,98.86
2023-02-19T14:17:42.907Z,97.30
2023-02-19T14:20:47.057Z,97.20
2023-02-19T14:23:58.027Z,100.00
2023-02-19T14:27:01.793Z,100.00
2023-02-19T14:30:05.522Z,100.00
2023-02-19T14:33:11.438Z,100.00
2023-02-19T14:36:45.744Z,100.00
2023-02-19T14:39:49.859Z,100.00
2023-02-19T14:42:53.381Z,98.51
2023-02-19T14:46:05.340Z,97.80
2023-02-19T14:49:47.764Z,97.16
2023-02-19T14:52:54.641Z,96.50
2023-02-19T14:55:59.187Z,96.98
2023-02-19T14:59:10.607Z,97.69
2023-02-19T15:02:21.615Z,96.80
2023-02-19T15:05:28.690Z,97.11
2023-02-19T15:08:35.919Z,97.29
2023-02-19T15:11:42.412Z,97.39
2023-02-19T15:14:49.513Z,96.87
2023-02-19T15:17:52.957Z,96.27
2023-02-19T15:21:01.830Z,97.37
2023-02-19T15:24:06.291Z,93.55
2023-02-19T15:27:18.603Z,93.82
2023-02-19T15:30:30.707Z,92.22
2023-02-19T15:33:33.756Z,89.62
2023-02-19T15:36:36.896Z,91.47
2023-02-19T15:39:44.892Z,89.45
2023-02-19T15:42:48.335Z,89.53
2023-02-19T15:45:53.177Z,90.04
2023-02-19T15:49:04.024Z,89.46
2023-02-19T15:52:12.241Z,87.55
2023-02-19T15:55:37.087Z,88.45
2023-02-19T15:58:44.591Z,87.27
2023-02-19T16:01:48.339Z,86.80
2023-02-19T16:04:51.564Z,87.79
2023-02-19T16:08:13.546Z,86.63
2023-02-19T16:11:22.604Z,85.54
2023-02-19T16:14:35.343Z,84.10
2023-02-19T16:17:38.498Z,81.59
2023-02-19T16:20:47.310Z,82.52
2023-02-19T16:23:59.512Z,82.55
2023-02-19T16:27:03.411Z,84.61
2023-02-19T16:30:19.451Z,87.21
2023-02-19T16:33:37.803Z,90.27
2023-02-19T16:36:45.940Z,91.73
2023-02-19T16:39:49.405Z,93.11
2023-02-19T16:42:53.295Z,93.32
2023-02-19T16:45:57.051Z,93.74
2023-02-19T16:48:59.817Z,94.34
2023-02-19T16:52:04.909Z,93.23
2023-02-19T16:55:15.027Z,93.14
2023-02-19T16:58:18.641Z,93.36
2023-02-19T17:01:22.689Z,93.08
2023-02-19T17:04:25.721Z,93.38
2023-02-19T17:07:29.089Z,92.85
2023-02-19T17:10:35.203Z,93.55
2023-02-19T17:13:38.948Z,93.97
2023-02-19T17:16:42.028Z,94.52
2023-02-19T17:19:45.131Z,95.21
2023-02-19T17:22:48.092Z,95.18
2023-02-19T17:25:50.802Z,95.82
2023-02-19T17:28:53.797Z,95.58
2023-02-19T17:31:57.161Z,95.14
2023-02-19T17:34:59.932Z,95.10
2023-02-19T17:38:09.871Z,94.88
2023-02-19T17:41:13.028Z,93.37
2023-02-19T17:44:16.935Z,91.75
2023-02-19T17:47:21.101Z,92.05
2023-02-19T17:50:29.679Z,91.92
2023-02-19T17:53:33.551Z,91.04
2023-02-19T17:56:37.022Z,91.94
2023-02-19T17:59:40.207Z,91.45
2023-02-19T18:02:43.619Z,92.49
2023-02-19T18:05:47.329Z,92.19
2023-02-19T18:08:53.354Z,92.20
2023-02-19T18:11:56.817Z,92.51
2023-02-19T18:15:00.398Z,91.92
2023-02-19T18:18:05.772Z,91.95
2023-02-19T18:21:10.591Z,91.48
2023-02-19T18:24:13.433Z,90.67
2023-02-19T18:27:19.095Z,90.11
2023-02-19T18:30:23.399Z,89.78
2023-02-19T18:33:26.848Z,89.02
2023-02-19T18:36:29.907Z,88.47
2023-02-19T18:39:33.891Z,88.56
2023-02-19T18:42:41.157Z,87.59
2023-02-19T18:45:47.195Z,87.37
2023-02-19T18:48:51.150Z,86.64
2023-02-19T18:51:54.417Z,85.85
2023-02-19T18:54:58.295Z,86.12
2023-02-19T18:58:02.462Z,84.45
2023-02-19T19:01:05.695Z,85.13
2023-02-19T19:04:08.862Z,85.15
2023-02-19T19:07:12.268Z,85.39
2023-02-19T19:10:15.755Z,84.55
2023-02-19T19:13:18.773Z,83.83
2023-02-19T19:16:26.630Z,83.48
2023-02-19T19:19:31.269Z,82.97
2023-02-19T19:22:35.398Z,81.98
2023-02-19T19:25:39.284Z,81.04
2023-02-19T19:28:45.165Z,81.13
2023-02-19T19:31:49.311Z,80.93
2023-02-19T19:34:53.606Z,81.16
2023-02-19T19:37:58.880Z,80.39
2023-02-19T19:41:03.267Z,80.80
2023-02-19T19:44:07.149Z,80.34
2023-02-19T19:47:10.319Z,79.87
2023-02-19T19:50:18.986Z,80.60
2023-02-19T19:53:24.159Z,80.93
2023-02-19T19:56:31.029Z,80.98
2023-02-19T19:59:35.333Z,80.36
2023-02-19T20:02:39.448Z,79.34
2023-02-19T20:05:49.382Z,79.58
2023-02-19T20:08:57.012Z,79.45
2023-02-19T20:12:04.500Z,80.68
2023-02-19T20:15:16.959Z,80.33
2023-02-19T20:18:27.858Z,79.70
2023-02-19T20:21:31.940Z,80.09
2023-02-19T20:24:37.987Z,79.97
2023-02-19T20:27:41.728Z,79.63
2023-02-19T20:30:45.949Z,78.95
2023-02-19T20:33:51.632Z,79.69
2023-02-19T20:36:56.049Z,79.27
2023-02-19T20:40:03.860Z,79.02
2023-02-19T20:43:09.744Z,79.18
2023-02-19T20:46:14.152Z,78.86
2023-02-19T20:49:19.114Z,78.89
2023-02-19T20:52:25.170Z,78.61
2023-02-19T20:55:29.356Z,78.43
2023-02-19T20:58:43.868Z,77.88
2023-02-19T21:01:46.738Z,77.94
2023-02-19T21:04:50.372Z,78.43
2023-02-19T21:07:53.616Z,78.09
2023-02-19T21:10:56.941Z,78.06
2023-02-19T21:14:00.118Z,78.29
2023-02-19T21:17:03.550Z,78.56
2023-02-19T21:20:07.839Z,78.07
2023-02-19T21:23:10.795Z,78.32
2023-02-19T21:26:13.960Z,78.51
2023-02-19T21:29:21.165Z,78.80
2023-02-19T21:32:24.631Z,79.10
2023-02-19T21:35:28.486Z,78.94
2023-02-19T21:38:32.703Z,79.27
2023-02-19T21:41:36.446Z,79.51
2023-02-19T21:44:41.294Z,79.38
2023-02-19T21:47:47.310Z,79.50
2023-02-19T21:50:50.657Z,79.69
2023-02-19T21:53:54.405Z,79.05
2023-02-19T21:56:57.560Z,79.20
2023-02-19T22:00:00.555Z,78.76
2023-02-19T22:03:05.090Z,77.59
2023-02-19T22:06:08.668Z,78.76
2023-02-19T22:09:13.493Z,78.90
2023-02-19T22:12:17.300Z,78.74
2023-02-19T22:15:20.603Z,77.83
2023-02-19T22:18:24.313Z,77.72
2023-02-19T22:21:32.708Z,77.85
2023-02-19T22:24:36.022Z,79.09
2023-02-19T22:27:38.710Z,79.73
2023-02-19T22:30:43.478Z,79.93
2023-02-19T22:33:46.610Z,79.72
2023-02-19T22:36:49.784Z,80.75
2023-02-19T22:39:53.008Z,80.63
2023-02-19T22:42:55.753Z,80.42
2023-02-19T22:45:58.533Z,80.52
2023-02-19T22:49:04.226Z,80.68
2023-02-19T22:52:08.947Z,80.59
2023-02-19T22:55:12.328Z,80.60
2023-02-19T22:58:17.222Z,81.56
2023-02-19T23:01:20.384Z,82.62
2023-02-19T23:04:24.831Z,85.75
2023-02-19T23:07:27.667Z,87.32
2023-02-19T23:10:30.677Z,88.54
2023-02-19T23:13:33.235Z,88.56
2023-02-19T23:16:37.177Z,88.88
2023-02-19T23:19:39.936Z,89.04
2023-02-19T23:22:43.842Z,88.95
2023-02-19T23:25:46.551Z,89.04
2023-02-19T23:28:50.172Z,88.57
2023-02-19T23:31:54.707Z,88.51
2023-02-19T23:34:58.229Z,88.05
2023-02-19T23:38:01.573Z,88.22
2023-02-19T23:41:05.533Z,87.12
2023-02-19T23:44:08.719Z,86.79
2023-02-19T23:47:11.449Z,87.64
2023-02-19T23:50:15.964Z,87.46
2023-02-19T23:53:18.495Z,86.70
2023-02-19T23:56:28.351Z,86.76
2023-02-19T23:59:31.252Z,86.85
